sensor_id;sensor_type;location;lat;lon;timestamp;pressure;altitude;pressure_sealevel;temperature;humidity
19890;BME280;10107;51.198;6.824;2023-08-31T00:03:27;-21659.09;;;13.00;100.00
19890;BME280;10107;51.198;6.824;2023-08-31T00:07:30;-21657.91;;;12.96;100.00
19890;BME280;10107;51.198;6.824;2023-08-31T00:11:32;-21656.59;;;12.91;100.00
19890;BME280;10107;51.198;6.824;2023-08-31T00:15:33;-21655.94;;;12.88;100.00
19890;BME280;10107;51.198;6.824;2023-08-31T00:19:36;-21654.88;;;12.84;100.00
19890;BME280;10107;51.198;6.824;2023-08-31T00:23:39;-21654.09;;;12.81;100.00
19890;BME280;10107;51.198;6.824;2023-08-31T00:27:40;-21654.22;;;12.81;100.00
19890;BME280;10107;51.198;6.824;2023-08-31T00:31:43;-21654.75;;;12.83;100.00
19890;BME280;10107;51.198;6.824;2023-08-31T00:35:45;-21654.63;;;12.83;100.00
19890;BME280;10107;51.198;6.824;2023-08-31T00:39:48;-21653.56;;;12.79;100.00
19890;BME280;10107;51.198;6.824;2023-08-31T00:43:52;-21652.38;;;12.74;100.00
19890;BME280;10107;51.198;6.824;2023-08-31T00:47:54;-21650.00;;;12.65;100.00
19890;BME280;10107;51.198;6.824;2023-08-31T00:51:57;-21648.03;;;12.57;100.00
19890;BME280;10107;51.198;6.824;2023-08-31T00:56:00;-21645.91;;;12.49;100.00
19890;BME280;10107;51.198;6.824;2023-08-31T01:00:02;-21644.19;;;12.42;100.00
19890;BME280;10107;51.198;6.824;2023-08-31T01:04:14;-21642.06;;;12.34;100.00
19890;BME280;10107;51.198;6.824;2023-08-31T01:08:24;-21641.53;;;12.32;100.00
19890;BME280;10107;51.198;6.824;2023-08-31T01:12:36;-21639.16;;;12.23;100.00
19890;BME280;10107;51.198;6.824;2023-08-31T01:16:43;-21636.94;;;12.14;100.00
19890;BME280;10107;51.198;6.824;2023-08-31T01:20:55;-21635.19;;;12.07;100.00
19890;BME280;10107;51.198;6.824;2023-08-31T01:25:00;-21635.19;;;12.07;100.00
19890;BME280;10107;51.198;6.824;2023-08-31T01:29:04;-21634.53;;;12.05;100.00
19890;BME280;10107;51.198;6.824;2023-08-31T01:33:06;-21632.97;;;11.99;100.00
19890;BME280;10107;51.198;6.824;2023-08-31T01:37:12;-21632.16;;;11.96;100.00
19890;BME280;10107;51.198;6.824;2023-08-31T01:41:19;-21632.16;;;11.96;100.00
19890;BME280;10107;51.198;6.824;2023-08-31T01:45:23;-21630.03;;;11.87;100.00
19890;BME280;10107;51.198;6.824;2023-08-31T01:49:25;-21629.25;;;11.84;100.00
19890;BME280;10107;51.198;6.824;2023-08-31T01:53:27;-21629.00;;;11.83;100.00
19890;BME280;10107;51.198;6.824;2023-08-31T01:57:30;-21627.94;;;11.79;100.00
19890;BME280;10107;51.198;6.824;2023-08-31T02:01:43;-21627.53;;;11.78;100.00
19890;BME280;10107;51.198;6.824;2023-08-31T02:05:45;-21626.88;;;11.75;100.00
19890;BME280;10107;51.198;6.824;2023-08-31T02:09:48;-21627.66;;;11.78;100.00
19890;BME280;10107;51.198;6.824;2023-08-31T02:13:51;-21628.47;;;11.81;100.00
19890;BME280;10107;51.198;6.824;2023-08-31T02:17:54;-21628.59;;;11.82;100.00
19890;BME280;10107;51.198;6.824;2023-08-31T02:21:56;-21627.66;;;11.78;100.00
19890;BME280;10107;51.198;6.824;2023-08-31T02:25:58;-21625.41;;;11.69;100.00
19890;BME280;10107;51.198;6.824;2023-08-31T02:30:00;-21624.09;;;11.64;100.00
19890;BME280;10107;51.198;6.824;2023-08-31T02:34:05;-21623.44;;;11.62;100.00
19890;BME280;10107;51.198;6.824;2023-08-31T02:38:06;-21622.78;;;11.59;100.00
19890;BME280;10107;51.198;6.824;2023-08-31T02:42:08;-21621.72;;;11.55;100.00
19890;BME280;10107;51.198;6.824;2023-08-31T02:46:11;-21621.31;;;11.54;100.00
19890;BME280;10107;51.198;6.824;2023-08-31T02:50:12;-21621.06;;;11.53;100.00
19890;BME280;10107;51.198;6.824;2023-08-31T02:54:14;-21620.41;;;11.50;100.00
19890;BME280;10107;51.198;6.824;2023-08-31T02:58:16;-21620.41;;;11.50;100.00
19890;BME280;10107;51.198;6.824;2023-08-31T03:02:19;-21618.53;;;11.43;100.00
19890;BME280;10107;51.198;6.824;2023-08-31T03:06:20;-21618.00;;;11.41;100.00
19890;BME280;10107;51.198;6.824;2023-08-31T03:10:23;-21617.34;;;11.38;100.00
19890;BME280;10107;51.198;6.824;2023-08-31T03:14:25;-21616.69;;;11.36;100.00
19890;BME280;10107;51.198;6.824;2023-08-31T03:18:28;-21618.28;;;11.42;100.00
19890;BME280;10107;51.198;6.824;2023-08-31T03:22:30;-21618.94;;;11.44;100.00
19890;BME280;10107;51.198;6.824;2023-08-31T03:26:31;-21618.00;;;11.41;100.00
19890;BME280;10107;51.198;6.824;2023-08-31T03:30:34;-21616.69;;;11.36;100.00
19890;BME280;10107;51.198;6.824;2023-08-31T03:34:37;-21616.56;;;11.35;100.00
19890;BME280;10107;51.198;6.824;2023-08-31T03:38:39;-21615.50;;;11.31;100.00
19890;BME280;10107;51.198;6.824;2023-08-31T03:42:41;-21614.31;;;11.26;100.00
19890;BME280;10107;51.198;6.824;2023-08-31T03:46:42;-21613.53;;;11.23;100.00
19890;BME280;10107;51.198;6.824;2023-08-31T03:50:48;-21613.53;;;11.23;100.00
19890;BME280;10107;51.198;6.824;2023-08-31T03:54:51;-21613.38;;;11.23;100.00
19890;BME280;10107;51.198;6.824;2023-08-31T03:58:52;-21612.72;;;11.20;100.00
19890;BME280;10107;51.198;6.824;2023-08-31T04:02:54;-21612.31;;;11.19;100.00
19890;BME280;10107;51.198;6.824;2023-08-31T04:06:58;-21611.13;;;11.14;100.00
19890;BME280;10107;51.198;6.824;2023-08-31T04:11:00;-21610.88;;;11.13;100.00
19890;BME280;10107;51.198;6.824;2023-08-31T04:15:03;-21610.34;;;11.11;100.00
19890;BME280;10107;51.198;6.824;2023-08-31T04:19:06;-21608.75;;;11.05;100.00
19890;BME280;10107;51.198;6.824;2023-08-31T04:23:08;-21609.41;;;11.07;100.00
19890;BME280;10107;51.198;6.824;2023-08-31T04:27:10;-21608.88;;;11.05;100.00
19890;BME280;10107;51.198;6.824;2023-08-31T04:31:12;-21608.34;;;11.03;100.00
19890;BME280;10107;51.198;6.824;2023-08-31T04:35:13;-21609.94;;;11.09;100.00
19890;BME280;10107;51.198;6.824;2023-08-31T04:39:16;-21610.06;;;11.10;100.00
19890;BME280;10107;51.198;6.824;2023-08-31T04:43:18;-21611.13;;;11.14;100.00
19890;BME280;10107;51.198;6.824;2023-08-31T04:47:19;-21612.06;;;11.18;100.00
19890;BME280;10107;51.198;6.824;2023-08-31T04:51:31;-21613.66;;;11.24;100.00
19890;BME280;10107;51.198;6.824;2023-08-31T04:55:34;-21616.44;;;11.35;100.00
19890;BME280;10107;51.198;6.824;2023-08-31T04:59:35;-21620.25;;;11.49;100.00
19890;BME280;10107;51.198;6.824;2023-08-31T05:03:37;-21624.09;;;11.64;100.00
19890;BME280;10107;51.198;6.824;2023-08-31T05:07:39;-21625.94;;;11.72;100.00
19890;BME280;10107;51.198;6.824;2023-08-31T05:11:41;-21627.41;;;11.77;100.00
19890;BME280;10107;51.198;6.824;2023-08-31T05:15:45;-21627.00;;;11.76;100.00
19890;BME280;10107;51.198;6.824;2023-08-31T05:19:47;-21627.41;;;11.77;100.00
19890;BME280;10107;51.198;6.824;2023-08-31T05:23:48;-21628.19;;;11.80;100.00
19890;BME280;10107;51.198;6.824;2023-08-31T05:27:51;-21629.00;;;11.83;100.00
19890;BME280;10107;51.198;6.824;2023-08-31T05:31:52;-21630.72;;;11.90;100.00
19890;BME280;10107;51.198;6.824;2023-08-31T05:35:54;-21633.75;;;12.02;100.00
19890;BME280;10107;51.198;6.824;2023-08-31T05:39:56;-21636.94;;;12.14;100.00
19890;BME280;10107;51.198;6.824;2023-08-31T05:43:59;-21638.63;;;12.21;100.00
19890;BME280;10107;51.198;6.824;2023-08-31T05:48:00;-21641.94;;;12.34;100.00
19890;BME280;10107;51.198;6.824;2023-08-31T05:52:02;-21645.50;;;12.47;100.00
19890;BME280;10107;51.198;6.824;2023-08-31T05:56:04;-21647.22;;;12.54;100.00
19890;BME280;10107;51.198;6.824;2023-08-31T06:00:09;-21647.50;;;12.55;100.00
19890;BME280;10107;51.198;6.824;2023-08-31T06:04:16;-21651.97;;;12.73;100.00
19890;BME280;10107;51.198;6.824;2023-08-31T06:08:17;-21655.41;;;12.86;100.00
19890;BME280;10107;51.198;6.824;2023-08-31T06:12:19;-21659.63;;;13.02;100.00
19890;BME280;10107;51.198;6.824;2023-08-31T06:16:22;-21663.72;;;13.18;100.00
19890;BME280;10107;51.198;6.824;2023-08-31T06:20:24;-21668.47;;;13.37;100.00
19890;BME280;10107;51.198;6.824;2023-08-31T06:24:26;-21675.34;;;13.63;100.00
19890;BME280;10107;51.198;6.824;2023-08-31T06:28:27;-21702.59;;;14.70;100.00
19890;BME280;10107;51.198;6.824;2023-08-31T06:32:30;-21710.63;;;15.01;100.00
19890;BME280;10107;51.198;6.824;2023-08-31T06:36:32;-21756.84;;;16.81;100.00
19890;BME280;10107;51.198;6.824;2023-08-31T06:40:33;-21893.97;;;22.21;82.92
19890;BME280;10107;51.198;6.824;2023-08-31T06:44:35;-21994.91;;;26.21;61.29
19890;BME280;10107;51.198;6.824;2023-08-31T06:48:38;-22032.84;;;27.72;52.11
19890;BME280;10107;51.198;6.824;2023-08-31T06:52:39;-22075.81;;;29.44;48.70
19890;BME280;10107;51.198;6.824;2023-08-31T06:56:42;-22121.44;;;31.27;41.23
19890;BME280;10107;51.198;6.824;2023-08-31T07:00:43;-22146.16;;;32.27;36.92
19890;BME280;10107;51.198;6.824;2023-08-31T07:04:46;-22177.69;;;33.54;35.05
19890;BME280;10107;51.198;6.824;2023-08-31T07:08:48;-22203.81;;;34.60;32.23
19890;BME280;10107;51.198;6.824;2023-08-31T07:12:50;-22217.88;;;35.17;30.30
19890;BME280;10107;51.198;6.824;2023-08-31T07:16:52;-22232.78;;;35.77;29.74
19890;BME280;10107;51.198;6.824;2023-08-31T07:20:55;-22246.03;;;36.31;28.80
19890;BME280;10107;51.198;6.824;2023-08-31T07:24:56;-22270.22;;;37.30;27.00
19890;BME280;10107;51.198;6.824;2023-08-31T07:28:57;-22285.84;;;37.93;26.59
19890;BME280;10107;51.198;6.824;2023-08-31T07:32:59;-22293.38;;;38.24;25.23
19890;BME280;10107;51.198;6.824;2023-08-31T07:37:04;-22306.19;;;38.76;24.77
19890;BME280;10107;51.198;6.824;2023-08-31T07:41:06;-22319.97;;;39.33;24.03
19890;BME280;10107;51.198;6.824;2023-08-31T07:45:09;-22313.97;;;39.08;24.12
19890;BME280;10107;51.198;6.824;2023-08-31T07:49:10;-22286.09;;;37.94;25.06
19890;BME280;10107;51.198;6.824;2023-08-31T07:53:13;-22278.41;;;37.63;25.65
19890;BME280;10107;51.198;6.824;2023-08-31T07:57:15;-22258.00;;;36.80;26.41
19890;BME280;10107;51.198;6.824;2023-08-31T08:01:16;-22193.28;;;34.17;29.38
19890;BME280;10107;51.198;6.824;2023-08-31T08:05:18;-22115.69;;;31.04;34.30
19890;BME280;10107;51.198;6.824;2023-08-31T08:09:21;-22106.25;;;30.66;36.14
19890;BME280;10107;51.198;6.824;2023-08-31T08:13:23;-22115.19;;;31.02;36.30
19890;BME280;10107;51.198;6.824;2023-08-31T08:17:24;-22106.63;;;30.68;36.41
19890;BME280;10107;51.198;6.824;2023-08-31T08:21:26;-22095.28;;;30.22;36.90
19890;BME280;10107;51.198;6.824;2023-08-31T08:25:29;-22106.91;;;30.69;37.05
19890;BME280;10107;51.198;6.824;2023-08-31T08:29:30;-22118.63;;;31.16;36.35
19890;BME280;10107;51.198;6.824;2023-08-31T08:33:32;-22116.59;;;31.08;35.58
19890;BME280;10107;51.198;6.824;2023-08-31T08:37:34;-22111.09;;;30.86;35.82
19890;BME280;10107;51.198;6.824;2023-08-31T08:41:37;-22116.59;;;31.08;35.80
19890;BME280;10107;51.198;6.824;2023-08-31T08:45:39;-22095.41;;;30.23;37.01
19890;BME280;10107;51.198;6.824;2023-08-31T08:49:42;-22082.47;;;29.71;36.90
19890;BME280;10107;51.198;6.824;2023-08-31T08:53:45;-22105.50;;;30.63;36.17
19890;BME280;10107;51.198;6.824;2023-08-31T08:57:49;-22113.53;;;30.95;34.89
19890;BME280;10107;51.198;6.824;2023-08-31T09:01:50;-22093.34;;;30.14;36.91
19890;BME280;10107;51.198;6.824;2023-08-31T09:05:52;-22115.31;;;31.03;36.42
19890;BME280;10107;51.198;6.824;2023-08-31T09:09:54;-22133.31;;;31.75;33.92
19890;BME280;10107;51.198;6.824;2023-08-31T09:13:57;-22114.94;;;31.01;35.28
19890;BME280;10107;51.198;6.824;2023-08-31T09:17:59;-22073.66;;;29.35;37.46
19890;BME280;10107;51.198;6.824;2023-08-31T09:22:00;-22053.00;;;28.53;40.38
19890;BME280;10107;51.198;6.824;2023-08-31T09:26:04;-22082.88;;;29.72;37.47
19890;BME280;10107;51.198;6.824;2023-08-31T09:30:07;-22081.59;;;29.67;37.16
19890;BME280;10107;51.198;6.824;2023-08-31T09:34:09;-22039.91;;;28.00;38.22
19890;BME280;10107;51.198;6.824;2023-08-31T09:38:10;-21992.56;;;26.12;43.50
19890;BME280;10107;51.198;6.824;2023-08-31T09:42:12;-21963.28;;;24.95;46.70
19890;BME280;10107;51.198;6.824;2023-08-31T09:46:15;-21951.78;;;24.49;49.19
19890;BME280;10107;51.198;6.824;2023-08-31T09:50:18;-21994.00;;;26.17;45.67
19890;BME280;10107;51.198;6.824;2023-08-31T09:54:20;-22043.50;;;28.15;43.12
19890;BME280;10107;51.198;6.824;2023-08-31T09:58:24;-22083.63;;;29.75;37.43
19890;BME280;10107;51.198;6.824;2023-08-31T10:02:29;-22068.91;;;29.16;37.88
19890;BME280;10107;51.198;6.824;2023-08-31T10:06:32;-22107.91;;;30.73;35.66
19890;BME280;10107;51.198;6.824;2023-08-31T10:10:34;-22058.41;;;28.74;37.31
19890;BME280;10107;51.198;6.824;2023-08-31T10:14:36;-21983.69;;;25.76;42.77
19890;BME280;10107;51.198;6.824;2023-08-31T10:18:40;-21939.22;;;24.00;47.81
19890;BME280;10107;51.198;6.824;2023-08-31T10:22:42;-21914.34;;;23.01;52.11
19890;BME280;10107;51.198;6.824;2023-08-31T10:26:43;-21894.38;;;22.22;55.09
19890;BME280;10107;51.198;6.824;2023-08-31T10:31:00;-21929.66;;;23.62;52.66
19890;BME280;10107;51.198;6.824;2023-08-31T10:35:07;-21925.50;;;23.45;52.31
19890;BME280;10107;51.198;6.824;2023-08-31T10:39:13;-21912.81;;;22.95;54.45
19890;BME280;10107;51.198;6.824;2023-08-31T10:43:16;-21921.50;;;23.29;55.24
19890;BME280;10107;51.198;6.824;2023-08-31T10:47:18;-21949.97;;;24.42;51.95
19890;BME280;10107;51.198;6.824;2023-08-31T10:51:23;-21974.50;;;25.40;47.75
19890;BME280;10107;51.198;6.824;2023-08-31T10:55:25;-22071.59;;;29.27;40.48
19890;BME280;10107;51.198;6.824;2023-08-31T10:59:41;-22053.13;;;28.53;39.33
19890;BME280;10107;51.198;6.824;2023-08-31T11:03:58;-22084.78;;;29.80;37.97
19890;BME280;10107;51.198;6.824;2023-08-31T11:08:02;-22048.50;;;28.35;38.92
19890;BME280;10107;51.198;6.824;2023-08-31T11:12:04;-21997.59;;;26.32;41.77
19890;BME280;10107;51.198;6.824;2023-08-31T11:16:06;-21972.72;;;25.33;44.13
19890;BME280;10107;51.198;6.824;2023-08-31T11:20:08;-21936.13;;;23.87;48.88
19890;BME280;10107;51.198;6.824;2023-08-31T11:24:11;-21906.06;;;22.68;51.98
19890;BME280;10107;51.198;6.824;2023-08-31T11:28:15;-21880.75;;;21.68;56.99
19890;BME280;10107;51.198;6.824;2023-08-31T11:32:16;-21858.34;;;20.80;65.49
19890;BME280;10107;51.198;6.824;2023-08-31T11:36:18;-21843.91;;;20.23;73.02
19890;BME280;10107;51.198;6.824;2023-08-31T11:40:22;-21837.91;;;20.00;76.36
19890;BME280;10107;51.198;6.824;2023-08-31T11:44:23;-21887.22;;;21.94;70.74
19890;BME280;10107;51.198;6.824;2023-08-31T11:48:26;-21963.28;;;24.95;59.20
19890;BME280;10107;51.198;6.824;2023-08-31T11:52:30;-22005.19;;;26.62;48.07
19890;BME280;10107;51.198;6.824;2023-08-31T11:56:39;-22012.78;;;26.92;47.82
19890;BME280;10107;51.198;6.824;2023-08-31T12:00:42;-22009.44;;;26.79;44.98
19890;BME280;10107;51.198;6.824;2023-08-31T12:04:45;-21982.25;;;25.71;47.69
19890;BME280;10107;51.198;6.824;2023-08-31T12:08:47;-21976.19;;;25.46;48.68
19890;BME280;10107;51.198;6.824;2023-08-31T12:12:52;-21976.19;;;25.46;49.75
19890;BME280;10107;51.198;6.824;2023-08-31T12:17:01;-21984.72;;;25.80;45.64
19890;BME280;10107;51.198;6.824;2023-08-31T12:21:03;-21988.06;;;25.94;44.63
19890;BME280;10107;51.198;6.824;2023-08-31T12:25:05;-22000.16;;;26.42;45.19
19890;BME280;10107;51.198;6.824;2023-08-31T12:29:08;-22007.00;;;26.69;43.14
19890;BME280;10107;51.198;6.824;2023-08-31T12:33:10;-22045.69;;;28.23;40.35
19890;BME280;10107;51.198;6.824;2023-08-31T12:37:12;-22061.09;;;28.85;38.42
19890;BME280;10107;51.198;6.824;2023-08-31T12:41:13;-22060.56;;;28.83;38.89
19890;BME280;10107;51.198;6.824;2023-08-31T12:45:16;-22049.41;;;28.38;38.60
19890;BME280;10107;51.198;6.824;2023-08-31T12:49:18;-22051.22;;;28.46;40.00
19890;BME280;10107;51.198;6.824;2023-08-31T12:53:22;-22017.03;;;27.09;38.61
19890;BME280;10107;51.198;6.824;2023-08-31T12:57:23;-21980.31;;;25.63;42.14
19890;BME280;10107;51.198;6.824;2023-08-31T13:01:26;-21976.31;;;25.47;42.90
19890;BME280;10107;51.198;6.824;2023-08-31T13:05:28;-21973.63;;;25.36;43.37
19890;BME280;10107;51.198;6.824;2023-08-31T13:09:29;-21965.72;;;25.05;44.01
19890;BME280;10107;51.198;6.824;2023-08-31T13:13:31;-21975.28;;;25.43;44.05
19890;BME280;10107;51.198;6.824;2023-08-31T13:17:34;-21989.34;;;25.99;43.42
19890;BME280;10107;51.198;6.824;2023-08-31T13:21:36;-21981.34;;;25.67;42.02
19890;BME280;10107;51.198;6.824;2023-08-31T13:25:37;-21976.06;;;25.46;41.04
19890;BME280;10107;51.198;6.824;2023-08-31T13:29:39;-21975.81;;;25.45;41.99
19890;BME280;10107;51.198;6.824;2023-08-31T13:33:42;-21958.25;;;24.75;44.51
19890;BME280;10107;51.198;6.824;2023-08-31T13:37:44;-21956.56;;;24.68;44.98
19890;BME280;10107;51.198;6.824;2023-08-31T13:41:45;-21955.00;;;24.62;44.30
19890;BME280;10107;51.198;6.824;2023-08-31T13:45:47;-21950.09;;;24.43;45.64
19890;BME280;10107;51.198;6.824;2023-08-31T13:49:50;-21943.13;;;24.15;44.90
19890;BME280;10107;51.198;6.824;2023-08-31T13:53:52;-21927.84;;;23.55;47.71
19890;BME280;10107;51.198;6.824;2023-08-31T13:57:53;-21915.41;;;23.05;48.80
19890;BME280;10107;51.198;6.824;2023-08-31T14:01:55;-21919.03;;;23.20;49.87
19890;BME280;10107;51.198;6.824;2023-08-31T14:05:58;-21939.50;;;24.01;46.27
19890;BME280;10107;51.198;6.824;2023-08-31T14:09:59;-21924.59;;;23.42;46.73
19890;BME280;10107;51.198;6.824;2023-08-31T14:14:02;-21906.72;;;22.71;49.71
19890;BME280;10107;51.198;6.824;2023-08-31T14:18:06;-21905.00;;;22.64;51.88
19890;BME280;10107;51.198;6.824;2023-08-31T14:22:09;-21899.19;;;22.41;54.57
19890;BME280;10107;51.198;6.824;2023-08-31T14:26:11;-21909.69;;;22.83;54.21
19890;BME280;10107;51.198;6.824;2023-08-31T14:30:13;-21923.16;;;23.36;52.46
19890;BME280;10107;51.198;6.824;2023-08-31T14:34:15;-21923.03;;;23.36;50.11
19890;BME280;10107;51.198;6.824;2023-08-31T14:38:21;-21907.09;;;22.72;51.42
19890;BME280;10107;51.198;6.824;2023-08-31T14:42:23;-21894.38;;;22.22;52.66
19890;BME280;10107;51.198;6.824;2023-08-31T14:46:24;-21886.44;;;21.91;52.54
19890;BME280;10107;51.198;6.824;2023-08-31T14:50:26;-21880.59;;;21.68;51.80
19890;BME280;10107;51.198;6.824;2023-08-31T14:54:29;-21879.94;;;21.65;53.62
19890;BME280;10107;51.198;6.824;2023-08-31T14:58:31;-21875.28;;;21.47;54.91
19890;BME280;10107;51.198;6.824;2023-08-31T15:02:33;-21872.03;;;21.34;56.39
19890;BME280;10107;51.198;6.824;2023-08-31T15:06:34;-21865.50;;;21.08;57.05
19890;BME280;10107;51.198;6.824;2023-08-31T15:10:38;-21868.00;;;21.18;57.08
19890;BME280;10107;51.198;6.824;2023-08-31T15:14:40;-21876.31;;;21.51;57.49
19890;BME280;10107;51.198;6.824;2023-08-31T15:18:42;-21878.25;;;21.59;55.85
19890;BME280;10107;51.198;6.824;2023-08-31T15:22:45;-21877.09;;;21.54;57.05
19890;BME280;10107;51.198;6.824;2023-08-31T15:26:47;-21874.75;;;21.45;58.02
19890;BME280;10107;51.198;6.824;2023-08-31T15:30:49;-21875.16;;;21.46;58.84
19890;BME280;10107;51.198;6.824;2023-08-31T15:34:50;-21875.28;;;21.47;58.85
19890;BME280;10107;51.198;6.824;2023-08-31T15:38:52;-21875.66;;;21.48;59.40
19890;BME280;10107;51.198;6.824;2023-08-31T15:42:55;-21872.81;;;21.37;63.23
19890;BME280;10107;51.198;6.824;2023-08-31T15:46:57;-21870.19;;;21.27;65.93
19890;BME280;10107;51.198;6.824;2023-08-31T15:50:59;-21867.59;;;21.16;65.81
19890;BME280;10107;51.198;6.824;2023-08-31T15:55:03;-21856.81;;;20.74;67.78
19890;BME280;10107;51.198;6.824;2023-08-31T15:59:07;-21849.09;;;20.44;70.90
19890;BME280;10107;51.198;6.824;2023-08-31T16:03:08;-21842.59;;;20.18;73.22
19890;BME280;10107;51.198;6.824;2023-08-31T16:07:10;-21834.25;;;19.85;73.61
19890;BME280;10107;51.198;6.824;2023-08-31T16:11:12;-21832.16;;;19.77;74.48
19890;BME280;10107;51.198;6.824;2023-08-31T16:15:15;-21831.38;;;19.74;74.30
19890;BME280;10107;51.198;6.824;2023-08-31T16:19:17;-21838.28;;;20.01;74.73
19890;BME280;10107;51.198;6.824;2023-08-31T16:23:18;-21841.28;;;20.13;73.69
19890;BME280;10107;51.198;6.824;2023-08-31T16:27:20;-21840.63;;;20.10;73.43
19890;BME280;10107;51.198;6.824;2023-08-31T16:31:23;-21836.34;;;19.93;74.71
19890;BME280;10107;51.198;6.824;2023-08-31T16:35:25;-21834.91;;;19.88;76.44
19890;BME280;10107;51.198;6.824;2023-08-31T16:39:26;-21836.88;;;19.95;74.69
19890;BME280;10107;51.198;6.824;2023-08-31T16:43:28;-21835.81;;;19.91;75.93
19890;BME280;10107;51.198;6.824;2023-08-31T16:47:31;-21834.50;;;19.86;75.94
19890;BME280;10107;51.198;6.824;2023-08-31T16:51:33;-21830.34;;;19.70;76.52
19890;BME280;10107;51.198;6.824;2023-08-31T16:55:36;-21825.50;;;19.51;77.43
19890;BME280;10107;51.198;6.824;2023-08-31T16:59:38;-21821.84;;;19.36;79.77
19890;BME280;10107;51.198;6.824;2023-08-31T17:03:41;-21818.97;;;19.25;81.04
19890;BME280;10107;51.198;6.824;2023-08-31T17:07:43;-21813.50;;;19.04;81.77
19890;BME280;10107;51.198;6.824;2023-08-31T17:11:44;-21807.63;;;18.80;82.95
19890;BME280;10107;51.198;6.824;2023-08-31T17:15:46;-21805.53;;;18.72;84.58
19890;BME280;10107;51.198;6.824;2023-08-31T17:19:51;-21803.69;;;18.65;85.61
19890;BME280;10107;51.198;6.824;2023-08-31T17:23:53;-21802.13;;;18.59;85.92
19890;BME280;10107;51.198;6.824;2023-08-31T17:27:54;-21800.31;;;18.52;86.34
19890;BME280;10107;51.198;6.824;2023-08-31T17:31:56;-21800.03;;;18.51;88.41
19890;BME280;10107;51.198;6.824;2023-08-31T17:35:59;-21799.13;;;18.47;89.09
19890;BME280;10107;51.198;6.824;2023-08-31T17:40:01;-21797.44;;;18.40;89.11
19890;BME280;10107;51.198;6.824;2023-08-31T17:44:07;-21796.00;;;18.35;90.17
19890;BME280;10107;51.198;6.824;2023-08-31T17:48:09;-21795.06;;;18.31;90.43
19890;BME280;10107;51.198;6.824;2023-08-31T17:52:12;-21795.34;;;18.32;91.16
19890;BME280;10107;51.198;6.824;2023-08-31T17:56:14;-21793.91;;;18.27;88.99
19890;BME280;10107;51.198;6.824;2023-08-31T18:00:16;-21793.25;;;18.24;90.60
19890;BME280;10107;51.198;6.824;2023-08-31T18:04:18;-21792.06;;;18.19;90.25
19890;BME280;10107;51.198;6.824;2023-08-31T18:08:21;-21789.97;;;18.11;92.58
19890;BME280;10107;51.198;6.824;2023-08-31T18:12:23;-21786.69;;;17.98;96.47
19890;BME280;10107;51.198;6.824;2023-08-31T18:16:25;-21782.50;;;17.82;98.76
19890;BME280;10107;51.198;6.824;2023-08-31T18:20:27;-21778.59;;;17.67;100.00
19890;BME280;10107;51.198;6.824;2023-08-31T18:24:30;-21775.19;;;17.53;100.00
19890;BME280;10107;51.198;6.824;2023-08-31T18:28:31;-21771.91;;;17.40;100.00
19890;BME280;10107;51.198;6.824;2023-08-31T18:32:33;-21767.97;;;17.25;100.00
19890;BME280;10107;51.198;6.824;2023-08-31T18:36:36;-21765.34;;;17.15;100.00
19890;BME280;10107;51.198;6.824;2023-08-31T18:40:40;-21763.38;;;17.07;100.00
19890;BME280;10107;51.198;6.824;2023-08-31T18:44:42;-21761.94;;;17.01;100.00
19890;BME280;10107;51.198;6.824;2023-08-31T18:48:43;-21760.78;;;16.97;100.00
19890;BME280;10107;51.198;6.824;2023-08-31T18:52:45;-21761.56;;;17.00;100.00
19890;BME280;10107;51.198;6.824;2023-08-31T18:56:48;-21761.94;;;17.01;100.00
19890;BME280;10107;51.198;6.824;2023-08-31T19:00:50;-21760.38;;;16.95;100.00
19890;BME280;10107;51.198;6.824;2023-08-31T19:04:52;-21760.13;;;16.94;100.00
19890;BME280;10107;51.198;6.824;2023-08-31T19:08:54;-21759.72;;;16.93;100.00
19890;BME280;10107;51.198;6.824;2023-08-31T19:12:58;-21759.31;;;16.91;100.00
19890;BME280;10107;51.198;6.824;2023-08-31T19:17:07;-21757.88;;;16.86;100.00
19890;BME280;10107;51.198;6.824;2023-08-31T19:21:08;-21757.09;;;16.82;100.00
19890;BME280;10107;51.198;6.824;2023-08-31T19:25:10;-21754.75;;;16.73;100.00
19890;BME280;10107;51.198;6.824;2023-08-31T19:29:14;-21753.28;;;16.68;100.00
19890;BME280;10107;51.198;6.824;2023-08-31T19:33:15;-21751.72;;;16.61;100.00
19890;BME280;10107;51.198;6.824;2023-08-31T19:37:17;-21750.66;;;16.57;100.00
19890;BME280;10107;51.198;6.824;2023-08-31T19:41:19;-21749.22;;;16.52;100.00
19890;BME280;10107;51.198;6.824;2023-08-31T19:45:29;-21747.78;;;16.46;100.00
19890;BME280;10107;51.198;6.824;2023-08-31T19:49:31;-21744.25;;;16.32;100.00
19890;BME280;10107;51.198;6.824;2023-08-31T19:53:32;-21741.63;;;16.22;100.00
19890;BME280;10107;51.198;6.824;2023-08-31T19:57:34;-21739.25;;;16.13;100.00
19890;BME280;10107;51.198;6.824;2023-08-31T20:01:37;-21737.41;;;16.06;100.00
19890;BME280;10107;51.198;6.824;2023-08-31T20:05:40;-21734.53;;;15.94;100.00
19890;BME280;10107;51.198;6.824;2023-08-31T20:09:41;-21733.63;;;15.91;100.00
19890;BME280;10107;51.198;6.824;2023-08-31T20:13:43;-21731.50;;;15.82;100.00
19890;BME280;10107;51.198;6.824;2023-08-31T20:17:47;-21729.53;;;15.75;100.00
19890;BME280;10107;51.198;6.824;2023-08-31T20:21:49;-21728.75;;;15.72;100.00
19890;BME280;10107;51.198;6.824;2023-08-31T20:25:51;-21727.56;;;15.67;100.00
19890;BME280;10107;51.198;6.824;2023-08-31T20:29:53;-21725.72;;;15.60;100.00
19890;BME280;10107;51.198;6.824;2023-08-31T20:33:56;-21724.03;;;15.53;100.00
19890;BME280;10107;51.198;6.824;2023-08-31T20:37:58;-21722.19;;;15.46;100.00
19890;BME280;10107;51.198;6.824;2023-08-31T20:42:00;-21720.34;;;15.39;100.00
19890;BME280;10107;51.198;6.824;2023-08-31T20:46:06;-21718.63;;;15.32;100.00
19890;BME280;10107;51.198;6.824;2023-08-31T20:50:09;-21716.53;;;15.24;100.00
19890;BME280;10107;51.198;6.824;2023-08-31T20:54:11;-21716.13;;;15.22;100.00
19890;BME280;10107;51.198;6.824;2023-08-31T20:58:13;-21715.47;;;15.20;100.00
19890;BME280;10107;51.198;6.824;2023-08-31T21:02:15;-21713.78;;;15.13;100.00